Time;durP1;ratioP1;P1;durP2;ratioP2;P2;SDS_P1;SDS_P2;PMS_P1;PMS_P2;Temp;Humidity;BMP_temperature;BMP_pressure;BME280_temperature;BME280_humidity;BME280_pressure;Samples;Min_cycle;Max_cycle;Signal;HPM_P1;HPM_P2
2021/12/10 00:00:21;;;;;;;0.00;0.00;;;;;;;6.42;76.29;99005.00;7358952;19;20025;-62
2021/12/10 00:02:48;;;;;;;0.00;0.00;;;;;;;6.39;76.15;99015.50;7358394;19;20023;-62
2021/12/10 00:05:20;;;;;;;0.10;0.10;;;;;;;6.38;76.05;99024.16;7359477;19;20695;-62
2021/12/10 00:07:46;;;;;;;0.10;0.10;;;;;;;6.31;75.88;99022.66;7361827;19;20026;-62
2021/12/10 00:10:18;;;;;;;0.00;0.00;;;;;;;6.28;76.07;99011.53;7362062;19;20034;-62
2021/12/10 00:12:50;;;;;;;0.10;0.10;;;;;;;6.19;75.60;99017.88;7353778;19;20010;-62
2021/12/10 00:15:20;;;;;;;0.10;0.10;;;;;;;6.13;75.75;99029.31;7351615;19;20002;-62
2021/12/10 00:17:47;;;;;;;0.10;0.10;;;;;;;6.09;75.62;99026.84;7361152;19;20109;-62
2021/12/10 00:20:13;;;;;;;0.10;0.10;;;;;;;6.03;75.99;99037.38;7351720;19;20839;-63
2021/12/10 00:22:49;;;;;;;0.10;0.10;;;;;;;5.98;75.94;99040.97;7356659;19;20469;-63
2021/12/10 00:25:20;;;;;;;0.00;0.00;;;;;;;5.92;76.05;99043.75;7356823;19;20002;-63
2021/12/10 00:27:52;;;;;;;0.10;0.10;;;;;;;5.87;75.70;99048.19;7363606;19;20035;-62
2021/12/10 00:30:28;;;;;;;0.00;0.00;;;;;;;5.80;76.27;99051.84;7359902;19;20003;-61
2021/12/10 00:33:03;;;;;;;0.00;0.00;;;;;;;5.77;75.74;99057.13;7358035;19;20014;-62
2021/12/10 00:35:33;;;;;;;0.08;0.08;;;;;;;5.71;76.17;99057.31;7361504;19;20346;-62
2021/12/10 00:37:59;;;;;;;0.00;0.00;;;;;;;5.67;75.86;99060.88;7360712;19;20805;-62
2021/12/10 00:40:26;;;;;;;0.10;0.10;;;;;;;5.59;76.02;99053.34;7362431;19;20018;-62
2021/12/10 00:42:53;;;;;;;0.00;0.00;;;;;;;5.57;76.14;99070.63;7362056;19;20386;-62
2021/12/10 00:45:20;;;;;;;0.00;0.00;;;;;;;5.52;76.21;99067.34;7358829;19;20442;-62
2021/12/10 00:47:46;;;;;;;0.00;0.00;;;;;;;5.51;76.19;99076.00;7361075;19;20658;-62
2021/12/10 00:50:18;;;;;;;0.10;0.10;;;;;;;5.49;76.56;99082.97;7353538;19;20043;-62
2021/12/10 00:52:45;;;;;;;0.00;0.00;;;;;;;5.45;76.50;99077.03;7361114;19;20042;-62
2021/12/10 00:55:12;;;;;;;0.10;0.10;;;;;;;5.42;76.51;99082.31;7358015;19;20029;-61
2021/12/10 00:57:39;;;;;;;0.10;0.10;;;;;;;5.32;76.36;99065.34;7360081;19;20048;-62
2021/12/10 01:00:08;;;;;;;0.05;0.05;;;;;;;5.39;76.46;99081.53;7361921;19;20010;-61
2021/12/10 01:02:34;;;;;;;0.00;0.00;;;;;;;5.27;76.67;99082.72;7365148;19;20426;-62
2021/12/10 01:04:59;;;;;;;0.00;0.00;;;;;;;5.34;76.66;99110.13;7359951;19;20097;-62
2021/12/10 01:07:31;;;;;;;0.10;0.10;;;;;;;5.33;76.68;99123.97;7357648;19;20014;-62
2021/12/10 01:09:59;;;;;;;0.00;0.00;;;;;;;5.31;77.29;99130.06;7364715;19;20346;-62
2021/12/10 01:12:31;;;;;;;0.00;0.00;;;;;;;5.38;77.49;99137.63;7359702;19;20052;-62
2021/12/10 01:28:49;;;;;;;0.00;0.00;;;;;;;5.54;77.71;99132.03;7362359;19;20361;-62
2021/12/10 01:31:15;;;;;;;0.10;0.10;;;;;;;5.54;77.38;99127.72;7358615;19;20553;-62
2021/12/10 01:33:42;;;;;;;0.00;0.00;;;;;;;5.52;77.25;99128.63;7361536;19;20467;-62
2021/12/10 01:36:08;;;;;;;0.00;0.00;;;;;;;5.55;77.65;99131.16;7361275;19;20090;-62
2021/12/10 01:38:35;;;;;;;0.00;0.00;;;;;;;5.54;76.92;99138.06;7353366;19;20027;-62
2021/12/10 01:41:05;;;;;;;0.00;0.00;;;;;;;5.53;77.40;99130.34;7358557;19;20013;-62
2021/12/10 01:43:34;;;;;;;0.00;0.00;;;;;;;5.50;76.97;99130.41;7360444;19;20010;-62
2021/12/10 01:46:07;;;;;;;0.10;0.10;;;;;;;5.48;77.14;99133.06;7358417;19;20050;-61
2021/12/10 01:48:38;;;;;;;0.10;0.10;;;;;;;5.45;77.40;99152.09;7362423;19;20003;-62
2021/12/10 01:51:04;;;;;;;0.00;0.00;;;;;;;5.43;77.20;99148.72;7358412;19;20576;-61
2021/12/10 01:53:34;;;;;;;0.00;0.00;;;;;;;5.42;77.13;99152.19;7363537;19;20010;-62
2021/12/10 01:56:04;;;;;;;0.00;0.00;;;;;;;5.40;77.38;99153.97;7357948;19;20022;-63
2021/12/10 01:58:31;;;;;;;0.00;0.00;;;;;;;5.38;77.21;99160.94;7360887;19;20034;-62
2021/12/10 02:01:04;;;;;;;0.10;0.10;;;;;;;5.37;76.65;99161.81;7361297;19;20344;-62
2021/12/10 02:03:31;;;;;;;0.03;0.03;;;;;;;5.29;76.67;99148.22;7363207;19;20043;-61
2021/12/10 02:05:57;;;;;;;0.10;0.10;;;;;;;5.27;76.71;99150.00;7359766;19;20034;-62
2021/12/10 02:08:23;;;;;;;0.10;0.10;;;;;;;5.22;76.67;99151.88;7354773;19;20038;-62
2021/12/10 02:10:48;;;;;;;0.00;0.00;;;;;;;5.17;76.60;99153.69;7359858;19;20011;-62
2021/12/10 02:13:14;;;;;;;0.00;0.00;;;;;;;5.12;76.77;99165.91;7359278;19;20038;-62
2021/12/10 02:15:41;;;;;;;0.10;0.10;;;;;;;5.08;76.75;99164.31;7356187;19;20015;-62
2021/12/10 02:18:10;;;;;;;0.00;0.00;;;;;;;5.02;76.27;99161.84;7361280;19;20744;-62
2021/12/10 02:21:03;;;;;;;0.10;0.10;;;;;;;4.97;76.41;99166.28;7358320;19;20451;-61
2021/12/10 02:23:44;;;;;;;0.10;0.10;;;;;;;4.90;76.61;99171.59;7353576;19;20027;-62
2021/12/10 02:26:12;;;;;;;0.00;0.00;;;;;;;4.85;76.25;99168.28;7355520;19;20035;-61
2021/12/10 02:28:38;;;;;;;;;;;;;;;4.81;76.31;99169.25;7357519;19;20030;-61
2021/12/10 02:31:07;;;;;;;0.00;0.00;;;;;;;4.75;76.27;99177.16;7363375;19;19915;-62
2021/12/10 02:33:34;;;;;;;0.10;0.10;;;;;;;4.58;76.64;99158.59;7361968;19;20018;-62
2021/12/10 02:36:00;;;;;;;0.10;0.10;;;;;;;4.63;76.82;99177.44;7358756;19;20046;-61
2021/12/10 02:38:25;;;;;;;0.00;0.00;;;;;;;4.60;76.88;99182.69;7363224;19;20010;-63
2021/12/10 02:40:53;;;;;;;0.10;0.10;;;;;;;4.55;77.17;99179.34;7360976;19;20029;-61
2021/12/10 02:43:20;;;;;;;;;;;;;;;4.53;76.81;99181.13;7362948;19;20025;-62
2021/12/10 02:45:51;;;;;;;0.10;0.10;;;;;;;4.49;76.90;99174.31;7363215;19;19942;-62
2021/12/10 02:48:16;;;;;;;0.10;0.10;;;;;;;4.45;77.01;99176.13;7361799;19;20018;-62
2021/12/10 02:50:43;;;;;;;0.10;0.10;;;;;;;4.41;77.39;99177.09;7362405;19;20441;-62
2021/12/10 02:53:10;;;;;;;0.00;0.00;;;;;;;4.38;76.96;99167.66;7361096;19;20073;-62
2021/12/10 02:55:37;;;;;;;0.10;0.10;;;;;;;4.35;77.07;99178.03;7358609;19;20039;-61
2021/12/10 02:58:06;;;;;;;0.10;0.10;;;;;;;4.34;77.56;99184.09;7354250;19;20011;-62
2021/12/10 03:00:37;;;;;;;0.00;0.00;;;;;;;4.33;77.56;99185.00;7364483;19;20018;-62
2021/12/10 03:03:03;;;;;;;0.10;0.10;;;;;;;4.32;77.33;99178.13;7363798;19;20763;-62
2021/12/10 03:05:28;;;;;;;0.10;0.10;;;;;;;4.32;77.37;99187.63;7360579;19;20018;-62
2021/12/10 03:07:54;;;;;;;0.10;0.10;;;;;;;4.30;77.55;99200.56;7364436;19;20014;-62
2021/12/10 03:10:29;;;;;;;0.00;0.00;;;;;;;4.31;77.27;99194.53;7361323;19;20014;-62
2021/12/10 03:12:55;;;;;;;0.03;0.03;;;;;;;4.22;77.58;99176.63;7361248;19;20015;-62
2021/12/10 03:15:24;;;;;;;0.10;0.10;;;;;;;4.29;77.48;99192.84;7355281;19;20095;-62
2021/12/10 03:17:50;;;;;;;0.00;0.00;;;;;;;4.24;77.21;99192.94;7364342;19;20041;-62
2021/12/10 03:20:19;;;;;;;0.10;0.10;;;;;;;4.22;77.59;99197.31;7366166;19;20031;-62
2021/12/10 03:22:46;;;;;;;0.10;0.10;;;;;;;4.25;77.58;99207.56;7368351;19;20010;-62
2021/12/10 03:25:15;;;;;;;0.00;0.00;;;;;;;4.24;77.16;99208.44;7367418;19;20418;-62
2021/12/10 03:27:41;;;;;;;0.08;0.08;;;;;;;4.22;77.21;99206.78;7370105;19;20010;-61
2021/12/10 03:30:10;;;;;;;0.10;0.10;;;;;;;4.21;77.28;99205.94;7358065;19;20086;-62
2021/12/10 03:32:37;;;;;;;0.00;0.00;;;;;;;4.19;77.22;99210.28;7362310;19;20500;-62
2021/12/10 03:35:13;;;;;;;0.00;0.00;;;;;;;4.19;77.36;99217.19;7360795;19;20022;-61
2021/12/10 03:37:41;;;;;;;0.10;0.10;;;;;;;4.16;77.33;99239.63;7365176;19;20027;-62
2021/12/10 03:40:08;;;;;;;0.10;0.10;;;;;;;4.14;77.42;99241.38;7367682;19;20029;-61
2021/12/10 03:42:34;;;;;;;0.05;0.05;;;;;;;4.14;77.30;99245.69;7368163;19;20077;-62
2021/12/10 03:44:59;;;;;;;0.10;0.10;;;;;;;4.12;77.45;99242.28;7368035;19;20019;-61
2021/12/10 03:47:25;;;;;;;0.10;0.10;;;;;;;4.11;77.63;99241.44;7366651;19;20011;-63
2021/12/10 03:49:50;;;;;;;0.10;0.10;;;;;;;4.12;77.51;99252.63;7366818;19;20427;-62
2021/12/10 03:52:16;;;;;;;0.00;0.00;;;;;;;4.11;77.55;99261.25;7361276;19;20035;-62
2021/12/10 03:54:42;;;;;;;0.00;0.00;;;;;;;4.01;77.23;99249.41;7360905;19;20020;-63
2021/12/10 03:57:08;;;;;;;0.00;0.00;;;;;;;4.10;77.38;99269.88;7368193;19;20081;-62
2021/12/10 03:59:36;;;;;;;0.05;0.05;;;;;;;4.11;77.76;99269.00;7363448;19;20046;-61
2021/12/10 04:02:04;;;;;;;0.10;0.10;;;;;;;4.09;77.84;99281.09;7366634;19;20054;-63
2021/12/10 04:04:34;;;;;;;0.00;0.00;;;;;;;4.10;77.25;99280.19;7359717;19;20014;-62
2021/12/10 04:07:02;;;;;;;0.00;0.00;;;;;;;4.10;77.37;99293.13;7362241;19;20006;-61
2021/12/10 04:09:28;;;;;;;0.00;0.00;;;;;;;3.98;77.34;99273.53;7365325;19;21131;-62
2021/12/10 04:11:55;;;;;;;0.10;0.10;;;;;;;4.05;77.61;99282.03;7361556;19;20026;-62
2021/12/10 04:14:22;;;;;;;0.00;0.00;;;;;;;4.09;77.39;99301.75;7364921;19;20030;-62
2021/12/10 04:16:54;;;;;;;0.00;0.00;;;;;;;4.07;77.08;99301.78;7367620;19;20013;-62
2021/12/10 04:19:21;;;;;;;0.00;0.00;;;;;;;4.07;77.09;99312.13;7363327;19;20015;-62
2021/12/10 04:21:47;;;;;;;0.03;0.03;;;;;;;4.06;77.11;99314.75;7365082;19;20522;-61
2021/12/10 04:24:19;;;;;;;0.00;0.00;;;;;;;4.03;77.02;99330.28;7364030;19;20011;-64
2021/12/10 04:26:47;;;;;;;0.00;0.00;;;;;;;4.02;77.21;99332.03;7360843;19;20824;-62
2021/12/10 04:29:13;;;;;;;0.10;0.10;;;;;;;3.80;77.24;99292.81;7361612;19;20034;-62
2021/12/10 04:31:38;;;;;;;0.00;0.00;;;;;;;3.99;77.08;99339.81;7366995;19;20085;-62
2021/12/10 04:34:04;;;;;;;0.03;0.03;;;;;;;3.90;77.25;99320.19;7366311;19;20019;-61
2021/12/10 04:36:30;;;;;;;0.10;0.10;;;;;;;3.97;76.92;99325.25;7366614;19;20006;-62
2021/12/10 04:38:56;;;;;;;0.03;0.03;;;;;;;3.92;77.23;99316.72;7367536;19;20038;-62
2021/12/10 04:41:22;;;;;;;0.10;0.10;;;;;;;3.93;77.37;99321.00;7365816;19;20011;-61
2021/12/10 04:43:47;;;;;;;0.10;0.10;;;;;;;3.89;77.45;99338.28;7367845;19;20026;-62
2021/12/10 04:46:14;;;;;;;0.00;0.00;;;;;;;3.89;77.08;99338.28;7366910;19;20017;-62
2021/12/10 04:49:01;;;;;;;0.00;0.00;;;;;;;3.87;77.02;99334.88;7360858;19;21221;-62
2021/12/10 04:51:30;;;;;;;0.00;0.00;;;;;;;3.86;77.24;99338.34;7262502;19;2004608;-62
2021/12/10 04:53:58;;;;;;;0.00;0.00;;;;;;;3.84;77.22;99342.66;7366203;19;20014;-62
2021/12/10 04:56:26;;;;;;;0.00;0.00;;;;;;;3.80;77.04;99335.84;7366732;19;20018;-61
2021/12/10 04:58:52;;;;;;;0.10;0.10;;;;;;;3.76;76.83;99342.81;7367310;19;20010;-62
2021/12/10 05:01:18;;;;;;;0.10;0.10;;;;;;;3.72;77.05;99356.63;7361802;19;20086;-61
2021/12/10 05:03:44;;;;;;;0.10;0.10;;;;;;;3.69;77.19;99355.81;7365896;19;20007;-62
2021/12/10 05:06:10;;;;;;;0.00;0.00;;;;;;;3.67;77.02;99357.59;7366758;19;20018;-61
2021/12/10 05:08:37;;;;;;;0.00;0.00;;;;;;;3.63;76.84;99362.78;7367167;19;20017;-62
2021/12/10 05:11:04;;;;;;;0.08;0.08;;;;;;;3.51;77.22;99346.66;7364058;19;20028;-61
2021/12/10 05:13:30;;;;;;;0.03;0.03;;;;;;;3.58;77.01;99363.75;7366055;19;20018;-61
2021/12/10 05:15:58;;;;;;;0.10;0.10;;;;;;;3.54;77.21;99372.41;7360589;19;20006;-62
2021/12/10 05:18:26;;;;;;;0.00;0.00;;;;;;;3.52;76.89;99381.91;7366693;19;21140;-62
2021/12/10 05:20:52;;;;;;;0.10;0.10;;;;;;;3.51;77.00;99387.97;7363217;19;20026;-61
2021/12/10 05:23:19;;;;;;;0.10;0.10;;;;;;;3.49;77.16;99389.69;7365944;19;20420;-61
2021/12/10 05:25:45;;;;;;;0.10;0.10;;;;;;;3.35;77.23;99377.03;7364760;19;20136;-62
2021/12/10 05:28:11;;;;;;;0.00;0.00;;;;;;;3.46;77.39;99405.25;7360954;19;20032;-62
2021/12/10 05:30:38;;;;;;;0.10;0.10;;;;;;;3.44;77.63;99401.81;7367075;19;20042;-61
2021/12/10 05:33:04;;;;;;;0.00;0.00;;;;;;;3.42;77.26;99406.16;7368066;19;20014;-62
2021/12/10 05:35:32;;;;;;;0.00;0.00;;;;;;;3.38;77.22;99401.03;7361453;19;20042;-61
2021/12/10 05:37:59;;;;;;;0.00;0.00;;;;;;;3.37;77.32;99401.06;7366084;19;20494;-61
2021/12/10 05:40:25;;;;;;;0.00;0.00;;;;;;;3.38;77.31;99408.75;7367633;19;20469;-62
2021/12/10 05:42:52;;;;;;;0.00;0.00;;;;;;;3.38;77.58;99413.06;7362115;19;23841;-62
2021/12/10 05:45:21;;;;;;;0.10;0.10;;;;;;;3.37;77.23;99419.97;7362042;19;20011;-61
2021/12/10 05:47:47;;;;;;;0.00;0.00;;;;;;;3.35;77.53;99413.13;7365122;19;20010;-62
2021/12/10 05:50:16;;;;;;;0.10;0.10;;;;;;;3.34;77.83;99422.56;7361514;19;20007;-62
2021/12/10 05:52:42;;;;;;;0.08;0.08;;;;;;;3.33;77.59;99431.19;7366350;19;20007;-62
2021/12/10 05:55:08;;;;;;;0.10;0.10;;;;;;;3.22;77.65;99411.59;7361957;19;20030;-62
2021/12/10 05:57:34;;;;;;;0.10;0.10;;;;;;;3.34;77.61;99424.31;7360388;19;20006;-61
2021/12/10 06:00:00;;;;;;;0.10;0.10;;;;;;;3.26;77.77;99419.28;7366083;19;20022;-62
2021/12/10 06:02:25;;;;;;;0.10;0.10;;;;;;;3.33;77.82;99430.34;7362692;19;20010;-61
2021/12/10 06:04:51;;;;;;;0.05;0.05;;;;;;;3.35;77.91;99434.63;7355941;19;20014;-62
2021/12/10 06:07:16;;;;;;;0.00;0.00;;;;;;;3.36;77.65;99440.66;7362354;19;20561;-62
2021/12/10 06:09:42;;;;;;;0.00;0.00;;;;;;;3.35;77.61;99442.38;7362928;19;20014;-62
2021/12/10 06:12:08;;;;;;;0.00;0.00;;;;;;;3.30;77.88;99439.00;7366510;19;20014;-62
2021/12/10 06:14:33;;;;;;;0.10;0.10;;;;;;;3.35;77.97;99444.94;7357553;19;20021;-61
2021/12/10 06:16:59;;;;;;;0.10;0.10;;;;;;;3.37;77.91;99450.94;7364503;19;20522;-63
2021/12/10 06:19:24;;;;;;;0.00;0.00;;;;;;;3.37;77.67;99457.81;7352178;19;20013;-62
2021/12/10 06:21:51;;;;;;;0.00;0.00;;;;;;;3.37;77.90;99453.50;7362938;19;20013;-62
2021/12/10 06:24:17;;;;;;;0.00;0.00;;;;;;;3.36;78.04;99443.22;7362127;19;20018;-62
2021/12/10 06:26:43;;;;;;;0.10;0.10;;;;;;;3.35;77.94;99454.44;7361603;19;20089;-62
2021/12/10 06:29:08;;;;;;;0.10;0.10;;;;;;;3.32;77.63;99455.31;7364919;19;20027;-61
2021/12/10 06:31:35;;;;;;;0.00;0.00;;;;;;;3.28;77.94;99453.63;7364903;19;20006;-62
2021/12/10 06:34:01;;;;;;;0.00;0.00;;;;;;;3.31;77.65;99463.91;7361557;19;20017;-61
2021/12/10 06:36:27;;;;;;;0.10;0.10;;;;;;;3.31;78.05;99457.91;7363527;19;20014;-61
2021/12/10 06:38:53;;;;;;;0.10;0.10;;;;;;;3.31;77.74;99466.50;7362253;19;20015;-62
2021/12/10 06:41:20;;;;;;;0.00;0.00;;;;;;;3.28;77.85;99461.38;7365706;19;20117;-62
2021/12/10 06:43:46;;;;;;;0.00;0.00;;;;;;;3.30;77.83;99467.38;7360844;19;20527;-62
2021/12/10 06:46:13;;;;;;;0.08;0.08;;;;;;;3.29;77.98;99473.38;7363470;19;20011;-62
2021/12/10 06:48:39;;;;;;;;;;;;;;;3.30;77.79;99469.97;7362526;19;20010;-61
2021/12/10 06:51:09;;;;;;;0.10;0.10;;;;;;;3.27;77.77;99471.72;7360241;19;19923;-62
2021/12/10 06:53:37;;;;;;;0.10;0.10;;;;;;;3.28;77.63;99474.28;7366545;19;20015;-63
2021/12/10 06:56:04;;;;;;;0.00;0.00;;;;;;;3.25;77.73;99476.91;7364244;19;20015;-61
2021/12/10 06:58:32;;;;;;;0.10;0.10;;;;;;;3.24;77.99;99477.75;7370387;19;20025;-62
2021/12/10 07:01:03;;;;;;;0.10;0.10;;;;;;;3.12;78.14;99459.88;7367478;19;20098;-62
2021/12/10 07:03:29;;;;;;;0.10;0.10;;;;;;;3.09;78.27;99452.16;7365713;19;20017;-62
2021/12/10 07:05:58;;;;;;;0.10;0.10;;;;;;;3.24;78.20;99470.00;7367081;19;20488;-62
2021/12/10 07:08:27;;;;;;;0.00;0.00;;;;;;;3.25;78.46;99471.75;7367071;19;20025;-62
2021/12/10 07:10:54;;;;;;;0.00;0.00;;;;;;;3.25;78.43;99471.75;7371608;19;20006;-61
2021/12/10 07:13:19;;;;;;;0.00;0.00;;;;;;;3.28;78.18;99484.59;7366401;19;20654;-62
2021/12/10 07:15:48;;;;;;;0.08;0.08;;;;;;;3.29;78.51;99491.44;7368911;19;20014;-63
2021/12/10 07:18:14;;;;;;;0.00;0.00;;;;;;;3.29;78.26;99491.44;7365735;19;20019;-62
2021/12/10 07:20:41;;;;;;;0.00;0.00;;;;;;;3.31;78.13;99514.66;7370826;19;20054;-61
2021/12/10 07:23:07;;;;;;;0.00;0.00;;;;;;;3.31;78.08;99519.84;7363667;19;20039;-61
2021/12/10 07:25:33;;;;;;;0.00;0.00;;;;;;;3.28;78.13;99523.28;7366438;19;20373;-62
2021/12/10 07:27:58;;;;;;;0.10;0.10;;;;;;;3.29;78.12;99532.72;7367406;19;20024;-62
2021/12/10 07:30:26;;;;;;;0.10;0.10;;;;;;;3.31;78.28;99536.16;7366720;19;20028;-62
2021/12/10 07:32:52;;;;;;;0.10;0.10;;;;;;;3.33;78.07;99544.72;7368847;19;20005;-62
2021/12/10 07:35:18;;;;;;;0.10;0.10;;;;;;;3.32;78.04;99539.59;7363033;19;20010;-61
2021/12/10 07:37:43;;;;;;;0.10;0.10;;;;;;;3.15;77.98;99508.84;7368480;19;20097;-61
2021/12/10 07:40:15;;;;;;;0.00;0.00;;;;;;;3.32;78.11;99548.19;7350702;19;20135;-62
2021/12/10 07:42:40;;;;;;;0.10;0.10;;;;;;;3.31;78.14;99530.16;7368171;19;20730;-61
2021/12/10 07:45:07;;;;;;;0.10;0.10;;;;;;;3.25;77.99;99531.09;7365535;19;20011;-62
2021/12/10 07:47:36;;;;;;;0.10;0.10;;;;;;;3.01;78.11;99497.84;7367005;19;20017;-61
2021/12/10 07:50:07;;;;;;;0.10;0.10;;;;;;;3.19;78.22;99541.44;7367128;19;20011;-62
2021/12/10 07:52:34;;;;;;;0.00;0.00;;;;;;;3.29;78.26;99548.22;7366025;19;20018;-62
2021/12/10 07:55:03;;;;;;;0.10;0.10;;;;;;;3.30;78.31;99539.63;7357326;19;20093;-62
2021/12/10 07:57:29;;;;;;;0.05;0.05;;;;;;;3.30;78.51;99554.25;7362873;19;20034;-61
2021/12/10 07:59:56;;;;;;;0.00;0.00;;;;;;;3.29;78.42;99558.53;7363102;19;20016;-62
2021/12/10 08:02:22;;;;;;;0.00;0.00;;;;;;;3.30;78.31;99562.00;7365178;19;20013;-62
2021/12/10 08:04:47;;;;;;;0.10;0.10;;;;;;;3.24;78.45;99570.63;7355718;19;20006;-61
2021/12/10 08:07:13;;;;;;;0.10;0.10;;;;;;;3.29;78.33;99583.47;7366970;19;20031;-62
2021/12/10 08:09:41;;;;;;;0.10;0.10;;;;;;;3.29;78.45;99574.00;7361385;19;20016;-62
2021/12/10 08:12:07;;;;;;;0.10;0.10;;;;;;;3.27;78.25;99591.25;7367418;19;20709;-61
2021/12/10 08:14:32;;;;;;;0.03;0.03;;;;;;;3.26;78.48;99589.53;7358698;19;20010;-62
2021/12/10 08:16:58;;;;;;;0.10;0.10;;;;;;;3.25;78.43;99593.00;7363103;19;20031;-62
2021/12/10 08:19:23;;;;;;;0.00;0.00;;;;;;;3.28;78.42;99592.94;7357269;19;21047;-62
2021/12/10 08:21:49;;;;;;;0.00;0.00;;;;;;;3.26;78.35;99604.16;7363649;19;20018;-61
2021/12/10 08:24:14;;;;;;;0.10;0.10;;;;;;;3.25;78.36;99613.63;7361894;19;20019;-62
2021/12/10 08:26:40;;;;;;;0.00;0.00;;;;;;;3.24;78.12;99606.75;7360077;19;20019;-61
2021/12/10 08:29:07;;;;;;;0.10;0.10;;;;;;;3.22;78.09;99613.66;7365607;19;20515;-63
2021/12/10 08:31:33;;;;;;;0.00;0.00;;;;;;;3.26;78.28;99614.50;7364077;19;20006;-62
2021/12/10 08:33:59;;;;;;;0.00;0.00;;;;;;;3.27;78.45;99627.38;7364183;19;20013;-62
2021/12/10 08:36:25;;;;;;;0.00;0.00;;;;;;;3.25;78.49;99618.81;7365225;19;20010;-62
2021/12/10 08:38:51;;;;;;;0.10;0.10;;;;;;;3.28;78.37;99626.50;7367805;19;20666;-62
2021/12/10 08:41:23;;;;;;;0.10;0.10;;;;;;;3.29;78.22;99641.09;7359395;19;20014;-62
2021/12/10 08:43:50;;;;;;;0.10;0.10;;;;;;;3.30;78.50;99632.50;7361974;19;20015;-62
2021/12/10 08:46:17;;;;;;;0.10;0.10;;;;;;;3.29;78.65;99629.91;7363105;19;20018;-62
2021/12/10 08:48:43;;;;;;;0.10;0.10;;;;;;;3.31;78.55;99626.47;7364750;19;20014;-62
2021/12/10 08:51:22;;;;;;;0.05;0.05;;;;;;;3.34;78.72;99636.75;7366468;19;20011;-62
2021/12/10 08:53:47;;;;;;;0.00;0.00;;;;;;;3.34;78.51;99639.31;7362004;19;21230;-61
2021/12/10 08:56:14;;;;;;;0.10;0.10;;;;;;;3.32;78.40;99646.22;7365036;19;20093;-62
2021/12/10 08:58:40;;;;;;;0.10;0.10;;;;;;;3.35;78.24;99656.53;7364341;19;20094;-62
2021/12/10 09:01:11;;;;;;;0.10;0.10;;;;;;;3.38;78.37;99656.50;7362279;19;20006;-62
2021/12/10 09:03:38;;;;;;;0.10;0.10;;;;;;;3.41;78.51;99667.66;7352351;19;20010;-61
2021/12/10 09:06:06;;;;;;;0.10;0.10;;;;;;;3.42;78.53;99669.38;7360841;19;20053;-62
2021/12/10 09:08:31;;;;;;;0.08;0.08;;;;;;;3.42;78.73;99661.63;7360079;19;20011;-62
2021/12/10 09:10:57;;;;;;;0.10;0.10;;;;;;;3.45;78.51;99677.06;7361872;19;20082;-62
2021/12/10 09:13:24;;;;;;;0.00;0.00;;;;;;;3.48;78.71;99672.72;7361624;19;20017;-61
2021/12/10 09:15:58;;;;;;;0.08;0.08;;;;;;;3.41;78.26;99660.78;7360987;19;20113;-62
2021/12/10 09:18:24;;;;;;;0.10;0.10;;;;;;;3.49;78.71;99668.44;7359823;19;20011;-62
2021/12/10 09:20:52;;;;;;;0.10;0.10;;;;;;;3.56;78.72;99665.78;7364400;19;20997;-62
2021/12/10 09:23:22;;;;;;;0.10;0.10;;;;;;;3.59;78.43;99675.19;7362641;19;20347;-61
2021/12/10 09:25:50;;;;;;;0.10;0.10;;;;;;;3.61;78.34;99687.22;7364461;19;20023;-62
2021/12/10 09:28:16;;;;;;;0.10;0.10;;;;;;;3.64;78.32;99682.00;7361461;19;20046;-61
2021/12/10 09:30:47;;;;;;;0.10;0.10;;;;;;;3.72;78.35;99702.59;7364692;19;20015;-62
2021/12/10 09:33:13;;;;;;;0.10;0.10;;;;;;;3.76;78.90;99706.88;7359539;19;20014;-61
2021/12/10 09:35:39;;;;;;;0.08;0.08;;;;;;;3.82;78.49;99698.19;7355048;19;20086;-62
2021/12/10 09:38:06;;;;;;;0.10;0.10;;;;;;;3.87;78.50;99712.75;7360667;19;20011;-62
2021/12/10 09:40:42;;;;;;;0.10;0.10;;;;;;;3.87;78.70;99706.75;7359303;19;20006;-62
2021/12/10 09:43:11;;;;;;;0.10;0.10;;;;;;;3.91;78.87;99708.44;7346185;19;20075;-62
2021/12/10 09:45:38;;;;;;;0.10;0.10;;;;;;;4.07;78.93;99722.88;7341805;19;20044;-62
2021/12/10 09:48:10;;;;;;;0.10;0.10;;;;;;;4.14;78.79;99716.72;7347422;19;20030;-61
2021/12/10 09:50:48;;;;;;;0.10;0.10;;;;;;;4.29;78.67;99726.03;7361784;19;20018;-62
2021/12/10 09:53:14;;;;;;;;;;;;;;;4.40;79.15;99713.81;7361715;19;20471;-62
2021/12/10 09:55:42;;;;;;;0.03;0.03;;;;;;;4.50;78.35;99729.19;7364332;19;19929;-62
2021/12/10 09:58:07;;;;;;;0.00;0.00;;;;;;;4.60;78.58;99741.13;7359495;19;20007;-62
2021/12/10 10:00:44;;;;;;;0.08;0.08;;;;;;;4.75;77.87;99751.25;7367052;19;20025;-62
2021/12/10 10:03:14;;;;;;;0.00;0.00;;;;;;;4.91;77.83;99742.38;7357984;19;20039;-62
2021/12/10 10:05:43;;;;;;;0.00;0.00;;;;;;;5.10;78.28;99736.94;7361600;19;20556;-62
2021/12/10 10:08:12;;;;;;;0.00;0.00;;;;;;;5.31;77.48;99752.13;7363503;19;20006;-62
2021/12/10 10:10:41;;;;;;;0.10;0.10;;;;;;;5.53;77.71;99747.44;7361385;19;20015;-62
2021/12/10 10:13:08;;;;;;;0.00;0.00;;;;;;;5.66;77.26;99733.38;7365936;19;20032;-62
2021/12/10 10:15:35;;;;;;;;;;;;;;;6.10;78.10;99759.38;7362831;19;20078;-62
2021/12/10 10:18:05;;;;;;;0.00;0.00;;;;;;;6.31;76.70;99758.94;7357992;19;19926;-62
2021/12/10 10:20:32;;;;;;;0.00;0.00;;;;;;;6.42;76.12;99751.78;7358891;19;20340;-63
2021/12/10 10:22:58;;;;;;;0.10;0.10;;;;;;;6.71;75.39;99769.34;7365224;19;20017;-62
2021/12/10 10:25:27;;;;;;;0.00;0.00;;;;;;;6.98;74.57;99767.00;7357786;19;20015;-62
2021/12/10 10:27:53;;;;;;;0.10;0.10;;;;;;;7.16;74.36;99765.72;7365899;19;20010;-62
2021/12/10 10:30:28;;;;;;;0.10;0.10;;;;;;;7.42;73.70;99767.69;7369718;19;20103;-62
2021/12/10 10:32:55;;;;;;;0.00;0.00;;;;;;;7.59;73.15;99770.72;7370101;19;20006;-62
2021/12/10 10:35:30;;;;;;;0.10;0.10;;;;;;;7.80;72.76;99774.50;7367469;19;20029;-61
2021/12/10 10:37:57;;;;;;;0.10;0.10;;;;;;;7.94;72.64;99782.78;7368054;19;20015;-63
2021/12/10 10:40:28;;;;;;;0.00;0.00;;;;;;;8.13;72.00;99792.69;7369309;19;22094;-61
2021/12/10 10:42:54;;;;;;;0.10;0.10;;;;;;;8.15;71.43;99780.50;7367878;19;20915;-61
2021/12/10 10:45:26;;;;;;;0.10;0.10;;;;;;;8.44;71.61;99797.94;7368641;19;20018;-62
2021/12/10 10:47:52;;;;;;;0.00;0.00;;;;;;;8.52;70.92;99802.03;7367548;19;20468;-62
2021/12/10 10:50:46;;;;;;;0.00;0.00;;;;;;;8.72;72.36;99801.47;7371781;19;20014;-62
2021/12/10 10:53:15;;;;;;;0.10;0.10;;;;;;;8.70;70.21;99800.63;7260580;19;2004113;-62
2021/12/10 10:55:51;;;;;;;0.00;0.00;;;;;;;8.79;70.91;99815.97;7362815;19;20023;-62
2021/12/10 10:58:18;;;;;;;0.00;0.00;;;;;;;8.69;69.61;99813.69;7369223;19;20014;-62
2021/12/10 11:00:58;;;;;;;0.10;0.10;;;;;;;8.67;69.80;99823.28;7364108;19;20033;-61
2021/12/10 11:03:35;;;;;;;0.03;0.03;;;;;;;8.66;70.14;99834.59;7360045;19;20014;-63
2021/12/10 11:06:03;;;;;;;0.00;0.00;;;;;;;8.69;70.07;99847.53;7371247;19;20018;-63
2021/12/10 11:08:44;;;;;;;0.10;0.10;;;;;;;8.84;71.16;99840.13;7358958;19;20034;-61
2021/12/10 11:11:21;;;;;;;0.00;0.00;;;;;;;9.00;70.65;99844.88;7364324;19;20032;-62
2021/12/10 11:14:06;;;;;;;0.00;0.00;;;;;;;9.20;71.13;99846.88;7367444;19;20039;-62
2021/12/10 11:16:35;;;;;;;0.00;0.00;;;;;;;9.40;70.13;99834.09;7370300;19;20014;-62
2021/12/10 11:19:22;;;;;;;0.00;0.00;;;;;;;9.66;71.62;99841.06;7363645;19;20597;-62
2021/12/10 11:21:58;;;;;;;0.00;0.00;;;;;;;9.85;69.22;99846.53;7362790;19;20014;-62
2021/12/10 11:24:44;;;;;;;0.00;0.00;;;;;;;10.04;70.24;99829.38;7367382;19;20039;-62
2021/12/10 11:27:19;;;;;;;0.00;0.00;;;;;;;10.30;68.52;99845.91;7366578;19;20041;-62
2021/12/10 11:29:48;;;;;;;0.10;0.10;;;;;;;10.46;67.52;99843.59;7369489;19;20048;-62
2021/12/10 11:32:34;;;;;;;0.00;0.00;;;;;;;10.65;66.95;99842.03;7365080;19;20018;-62
2021/12/10 11:35:05;;;;;;;0.00;0.00;;;;;;;10.86;68.00;99848.22;7363735;19;20010;-62
2021/12/10 11:37:50;;;;;;;0.03;0.03;;;;;;;11.03;67.77;99840.56;7371253;19;20022;-62
2021/12/10 11:40:32;;;;;;;0.03;0.03;;;;;;;11.24;67.33;99838.03;7363511;19;20034;-62
2021/12/10 11:43:05;;;;;;;0.00;0.00;;;;;;;11.34;66.41;99839.38;7369438;19;20017;-62
2021/12/10 11:45:44;;;;;;;0.00;0.00;;;;;;;11.48;66.20;99826.59;7358094;19;20010;-62
2021/12/10 11:48:19;;;;;;;0.10;0.10;;;;;;;11.53;64.76;99826.44;7368296;19;20034;-62
2021/12/10 11:51:00;;;;;;;0.10;0.10;;;;;;;11.62;66.35;99826.91;7367716;19;20038;-63
2021/12/10 11:53:39;;;;;;;0.08;0.08;;;;;;;11.72;66.74;99834.38;7368864;19;20010;-62
2021/12/10 11:56:13;;;;;;;0.00;0.00;;;;;;;11.76;64.11;99833.31;7369056;19;20028;-62
2021/12/10 11:58:39;;;;;;;0.00;0.00;;;;;;;11.76;63.44;99852.50;7366578;19;20010;-62
2021/12/10 12:01:12;;;;;;;0.00;0.00;;;;;;;11.77;63.41;99835.88;7365285;19;20015;-62